createdAt,value
2019-03-02T00:01:51.142Z,99.90
2019-03-02T00:03:55.064Z,99.30
2019-03-02T00:06:00.997Z,99.70
2019-03-02T00:08:04.131Z,99.90
2019-03-02T00:10:09.972Z,99.90
2019-03-02T00:12:14.083Z,99.90
2019-03-02T00:14:19.158Z,99.90
2019-03-02T00:16:23.429Z,99.90
2019-03-02T00:18:29.118Z,99.90
2019-03-02T00:20:32.912Z,99.90
2019-03-02T00:22:39.610Z,99.90
2019-03-02T00:24:42.344Z,99.90
2019-03-02T00:26:46.925Z,99.90
2019-03-02T00:28:50.880Z,99.90
2019-03-02T00:30:54.838Z,99.90
2019-03-02T00:33:00.090Z,99.90
2019-03-02T00:35:07.123Z,99.90
2019-03-02T00:37:09.333Z,99.90
2019-03-02T00:39:15.627Z,99.90
2019-03-02T00:41:18.502Z,99.90
2019-03-02T00:43:23.671Z,99.90
2019-03-02T00:45:27.670Z,99.90
2019-03-02T00:47:31.739Z,99.90
2019-03-02T00:49:37.013Z,99.90
2019-03-02T00:51:42.637Z,99.90
2019-03-02T00:53:46.199Z,99.90
2019-03-02T00:55:50.015Z,99.90
2019-03-02T00:57:54.495Z,99.90
2019-03-02T00:59:58.322Z,99.90
2019-03-02T01:02:04.373Z,99.90
2019-03-02T01:04:07.773Z,99.90
2019-03-02T01:06:12.726Z,99.90
2019-03-02T01:08:17.958Z,99.90
2019-03-02T01:10:22.596Z,99.90
2019-03-02T01:12:27.075Z,99.90
2019-03-02T01:14:31.846Z,99.90
2019-03-02T01:16:36.169Z,99.90
2019-03-02T01:18:42.440Z,99.90
2019-03-02T01:20:45.617Z,99.90
2019-03-02T01:22:51.832Z,99.90
2019-03-02T01:24:55.162Z,99.90
2019-03-02T01:26:59.463Z,99.90
2019-03-02T01:29:04.579Z,99.90
2019-03-02T01:31:08.231Z,99.90
2019-03-02T01:33:12.099Z,99.90
2019-03-02T01:35:16.448Z,99.90
2019-03-02T01:37:21.546Z,99.90
2019-03-02T01:39:25.786Z,99.90
2019-03-02T01:41:30.684Z,99.90
2019-03-02T01:43:36.782Z,99.90
2019-03-02T01:45:39.926Z,99.90
2019-03-02T01:47:43.775Z,99.90
2019-03-02T01:49:47.430Z,99.90
2019-03-02T01:51:54.765Z,99.90
2019-03-02T01:53:56.768Z,99.90
2019-03-02T01:56:02.780Z,99.90
2019-03-02T01:58:06.087Z,99.90
2019-03-02T02:00:20.770Z,99.90
2019-03-02T02:02:24.572Z,99.90
2019-03-02T02:04:28.316Z,99.90
2019-03-02T02:06:32.089Z,99.90
2019-03-02T02:08:35.935Z,99.90
2019-03-02T02:10:39.938Z,99.90
2019-03-02T02:12:45.407Z,99.90
2019-03-02T02:14:50.877Z,99.90
2019-03-02T02:16:54.645Z,99.90
2019-03-02T02:18:59.258Z,99.70
2019-03-02T02:21:03.265Z,99.90
2019-03-02T02:23:09.805Z,99.90
2019-03-02T02:25:14.790Z,99.90
2019-03-02T02:27:18.845Z,99.90
2019-03-02T02:29:24.038Z,99.90
2019-03-02T02:31:27.795Z,99.90
2019-03-02T02:33:31.655Z,99.90
2019-03-02T02:35:39.523Z,99.90
2019-03-02T02:37:41.048Z,99.90
2019-03-02T02:39:44.987Z,99.90
2019-03-02T02:41:48.614Z,99.90
2019-03-02T02:43:54.297Z,99.90
2019-03-02T02:45:58.155Z,99.90
2019-03-02T02:48:01.954Z,99.90
2019-03-02T02:50:08.906Z,99.90
2019-03-02T02:52:12.706Z,99.90
2019-03-02T02:54:22.402Z,99.90
2019-03-02T02:56:21.941Z,99.90
2019-03-02T02:58:26.648Z,99.90
2019-03-02T03:00:30.464Z,99.90
2019-03-02T03:02:35.237Z,99.90
2019-03-02T03:04:39.067Z,99.90
2019-03-02T03:06:42.900Z,99.90
2019-03-02T03:08:46.895Z,99.90
2019-03-02T03:10:50.860Z,99.90
2019-03-02T03:12:56.678Z,99.90
2019-03-02T03:15:00.355Z,99.90
2019-03-02T03:17:04.414Z,99.90
2019-03-02T03:19:08.287Z,99.90
2019-03-02T03:21:12.131Z,99.90
2019-03-02T03:23:19.925Z,99.90
2019-03-02T03:25:21.480Z,99.90
2019-03-02T03:27:25.375Z,99.90
2019-03-02T03:29:29.268Z,99.90
2019-03-02T03:31:33.047Z,99.90
2019-03-02T03:33:43.441Z,99.90
2019-03-02T03:35:42.349Z,99.90
2019-03-02T03:37:50.488Z,99.90
2019-03-02T03:39:51.672Z,99.90
2019-03-02T03:41:55.653Z,99.90
2019-03-02T03:43:59.443Z,99.90
2019-03-02T03:46:03.342Z,99.90
2019-03-02T03:48:07.051Z,99.90
2019-03-02T03:50:15.848Z,99.90
2019-03-02T03:52:19.629Z,99.90
2019-03-02T03:54:23.409Z,99.90
2019-03-02T03:56:27.745Z,99.90
2019-03-02T03:58:34.945Z,99.90
2019-03-02T04:00:38.634Z,99.90
2019-03-02T04:02:43.636Z,99.90
2019-03-02T04:04:47.482Z,99.90
2019-03-02T04:06:51.325Z,99.90
2019-03-02T04:08:55.127Z,99.90
2019-03-02T04:11:00.331Z,99.90
2019-03-02T04:13:06.247Z,99.90
2019-03-02T04:15:10.505Z,99.90
2019-03-02T04:17:14.430Z,99.90
2019-03-02T04:19:29.455Z,99.90
2019-03-02T04:21:35.169Z,99.90
2019-03-02T04:23:39.007Z,99.90
2019-03-02T04:25:42.998Z,99.90
2019-03-02T04:27:53.383Z,99.90
2019-03-02T04:29:55.343Z,99.90
2019-03-02T04:31:57.398Z,99.90
2019-03-02T04:34:01.208Z,99.90
2019-03-02T04:36:09.663Z,99.90
2019-03-02T04:38:10.496Z,99.90
2019-03-02T04:40:14.254Z,99.90
2019-03-02T04:42:18.157Z,99.90
2019-03-02T04:44:25.860Z,99.90
2019-03-02T04:46:28.810Z,99.90
2019-03-02T04:48:35.870Z,99.90
2019-03-02T04:50:38.130Z,99.90
2019-03-02T04:52:42.176Z,99.90
2019-03-02T04:54:45.838Z,99.90
2019-03-02T04:56:49.978Z,99.90
2019-03-02T04:58:54.088Z,99.90
2019-03-02T05:00:57.887Z,99.90
2019-03-02T05:03:01.572Z,99.90
2019-03-02T05:05:08.433Z,99.90
2019-03-02T05:07:11.234Z,99.90
2019-03-02T05:09:17.250Z,99.90
2019-03-02T05:11:20.540Z,99.90
2019-03-02T05:13:24.729Z,99.90
2019-03-02T05:15:29.609Z,99.90
2019-03-02T05:17:33.373Z,99.90
2019-03-02T05:19:37.186Z,99.90
2019-03-02T05:21:43.468Z,99.90
2019-03-02T05:23:46.411Z,99.90
2019-03-02T05:25:51.594Z,99.90
2019-03-02T05:27:55.572Z,99.90
2019-03-02T05:29:59.592Z,99.90
2019-03-02T05:32:03.186Z,99.90
2019-03-02T05:34:07.295Z,99.90
2019-03-02T05:36:11.030Z,99.90
2019-03-02T05:38:15.277Z,99.90
2019-03-02T05:40:19.779Z,99.90
2019-03-02T05:42:23.481Z,99.90
2019-03-02T05:44:27.203Z,99.90
2019-03-02T05:46:30.974Z,99.90
2019-03-02T05:48:34.681Z,99.90
2019-03-02T05:50:38.409Z,99.90
2019-03-02T05:52:42.426Z,99.90
2019-03-02T05:54:46.072Z,99.90
2019-03-02T05:56:49.826Z,99.90
2019-03-02T05:58:53.583Z,99.90
2019-03-02T06:00:57.257Z,99.90
2019-03-02T06:03:01.061Z,99.90
2019-03-02T06:05:05.964Z,99.90
2019-03-02T06:07:09.588Z,99.90
2019-03-02T06:09:14.746Z,99.90
2019-03-02T06:11:18.634Z,99.90
2019-03-02T06:13:24.770Z,99.90
2019-03-02T06:15:28.879Z,99.90
2019-03-02T06:17:33.170Z,99.90
2019-03-02T06:19:37.053Z,99.90
2019-03-02T06:21:42.739Z,99.90
2019-03-02T06:23:46.142Z,99.90
2019-03-02T06:25:55.127Z,99.90
2019-03-02T06:27:56.259Z,99.90
2019-03-02T06:29:59.914Z,99.90
2019-03-02T06:32:03.598Z,99.90
2019-03-02T06:34:07.233Z,99.90
2019-03-02T06:36:11.239Z,99.90
2019-03-02T06:38:14.999Z,99.90
2019-03-02T06:40:20.158Z,99.90
2019-03-02T06:42:24.246Z,99.90
2019-03-02T06:44:30.878Z,99.90
2019-03-02T06:46:33.061Z,99.90
2019-03-02T06:48:36.754Z,99.90
2019-03-02T06:50:40.349Z,99.90
2019-03-02T06:52:44.236Z,99.90
2019-03-02T06:54:48.284Z,99.90
2019-03-02T06:56:57.757Z,99.90
2019-03-02T06:59:00.686Z,99.90
2019-03-02T07:01:03.561Z,99.90
2019-03-02T07:03:10.131Z,99.90
2019-03-02T07:05:12.753Z,99.90
2019-03-02T07:07:18.549Z,99.90
2019-03-02T07:09:21.749Z,99.90
2019-03-02T07:11:25.451Z,99.90
2019-03-02T07:13:29.109Z,99.90
2019-03-02T07:15:32.815Z,99.90
2019-03-02T07:17:41.378Z,99.90
2019-03-02T07:19:48.664Z,99.90
2019-03-02T07:21:52.006Z,99.90
2019-03-02T07:23:56.403Z,99.90
2019-03-02T07:26:00.185Z,99.90
2019-03-02T07:28:06.005Z,99.90
2019-03-02T07:30:11.371Z,99.90
2019-03-02T07:32:15.579Z,99.90
2019-03-02T07:34:19.394Z,99.90
2019-03-02T07:36:23.128Z,99.90
2019-03-02T07:38:26.943Z,99.90
2019-03-02T07:40:30.862Z,99.90
2019-03-02T07:42:36.352Z,99.90
2019-03-02T07:44:40.167Z,99.90
2019-03-02T07:46:44.170Z,99.90
2019-03-02T07:48:49.203Z,99.90
2019-03-02T07:50:53.038Z,99.90
2019-03-02T07:52:56.822Z,99.90
2019-03-02T07:55:00.840Z,99.90
2019-03-02T07:57:04.973Z,99.90
2019-03-02T07:59:11.033Z,99.90
2019-03-02T08:01:16.693Z,99.90
2019-03-02T08:03:20.311Z,99.90
2019-03-02T08:05:24.069Z,99.90
2019-03-02T08:07:27.867Z,99.90
2019-03-02T08:09:31.661Z,99.90
2019-03-02T08:11:35.483Z,99.90
2019-03-02T08:13:39.104Z,99.90
2019-03-02T08:15:42.857Z,99.90
2019-03-02T08:17:49.058Z,99.90
2019-03-02T08:19:51.821Z,99.90
2019-03-02T08:21:55.659Z,99.90
2019-03-02T08:23:59.439Z,99.90
2019-03-02T08:26:03.130Z,99.90
2019-03-02T08:28:10.001Z,99.90
2019-03-02T08:30:21.087Z,99.90
2019-03-02T08:32:26.329Z,99.90
2019-03-02T08:34:30.073Z,99.90
2019-03-02T08:36:34.396Z,99.90
2019-03-02T08:38:38.231Z,99.90
2019-03-02T08:40:43.797Z,99.90
2019-03-02T08:42:47.565Z,99.90
2019-03-02T08:44:54.014Z,99.90
2019-03-02T08:46:56.803Z,99.90
2019-03-02T08:49:02.863Z,99.90
2019-03-02T08:51:05.931Z,99.90
2019-03-02T08:53:09.595Z,99.90
2019-03-02T08:55:17.890Z,99.90
2019-03-02T08:57:23.181Z,99.90
2019-03-02T08:59:26.972Z,99.90
2019-03-02T09:01:30.674Z,99.90
2019-03-02T09:03:37.179Z,99.90
2019-03-02T09:05:44.351Z,99.90
2019-03-02T09:07:45.355Z,99.90
2019-03-02T09:09:49.171Z,99.90
2019-03-02T09:11:52.995Z,99.90
2019-03-02T09:13:56.700Z,99.90
2019-03-02T09:16:01.525Z,99.90
2019-03-02T09:18:05.747Z,99.90
2019-03-02T09:20:10.476Z,99.90
2019-03-02T09:22:14.517Z,99.90
2019-03-02T09:24:19.534Z,99.90
2019-03-02T09:26:23.551Z,99.90
2019-03-02T09:28:27.280Z,99.90
2019-03-02T09:30:31.160Z,99.90
2019-03-02T09:32:34.954Z,99.90
2019-03-02T09:34:40.479Z,99.90
2019-03-02T09:36:44.646Z,99.90
2019-03-02T09:38:50.009Z,99.90
2019-03-02T09:40:54.188Z,99.90
2019-03-02T09:42:58.061Z,99.90
2019-03-02T09:45:01.798Z,99.90
2019-03-02T09:47:09.134Z,99.90
2019-03-02T09:49:11.038Z,99.90
2019-03-02T09:51:15.135Z,99.90
2019-03-02T09:53:18.942Z,99.90
2019-03-02T09:55:22.768Z,99.90
2019-03-02T09:57:26.617Z,99.90
2019-03-02T09:59:30.450Z,99.90
2019-03-02T10:01:35.699Z,99.90
2019-03-02T10:03:42.054Z,99.90
2019-03-02T10:05:46.590Z,99.90
2019-03-02T10:07:51.636Z,99.90
2019-03-02T10:09:55.878Z,99.90
2019-03-02T10:12:00.621Z,99.90
2019-03-02T10:14:04.510Z,99.90
2019-03-02T10:16:08.876Z,99.90
2019-03-02T10:18:14.888Z,99.90
2019-03-02T10:20:19.139Z,99.90
2019-03-02T10:22:23.441Z,99.90
2019-03-02T10:24:28.145Z,99.90
2019-03-02T10:26:31.789Z,99.90
2019-03-02T10:28:35.592Z,99.90
2019-03-02T10:30:40.169Z,99.90
2019-03-02T10:32:43.952Z,99.90
2019-03-02T10:34:47.853Z,99.90
2019-03-02T10:36:51.541Z,99.90
2019-03-02T10:38:55.726Z,99.90
2019-03-02T10:41:01.501Z,99.90
2019-03-02T10:43:07.482Z,99.90
2019-03-02T10:45:14.275Z,99.90
2019-03-02T10:47:18.096Z,99.90
2019-03-02T10:49:22.646Z,99.60
2019-03-02T10:51:26.658Z,99.10
2019-03-02T10:53:30.819Z,97.70
2019-03-02T10:55:34.919Z,96.80
2019-03-02T11:00:19.750Z,96.40
2019-03-02T11:02:25.811Z,94.70
2019-03-02T11:04:35.117Z,94.30
2019-03-02T11:06:43.296Z,93.20
2019-03-02T11:08:51.520Z,93.10
2019-03-02T11:11:13.215Z,94.10
2019-03-02T11:13:19.205Z,91.80
2019-03-02T11:15:28.428Z,88.80
2019-03-02T11:17:45.906Z,85.10
2019-03-02T11:20:09.496Z,84.50
2019-03-02T11:22:15.342Z,78.00
2019-03-02T11:24:27.933Z,77.80
2019-03-02T11:26:33.406Z,72.80
2019-03-02T11:28:45.300Z,64.60
2019-03-02T11:31:06.066Z,59.00
2019-03-02T11:33:31.005Z,57.50
2019-03-02T11:35:39.544Z,56.40
2019-03-02T11:38:02.491Z,56.80
2019-03-02T11:40:16.078Z,55.80
2019-03-02T11:42:37.590Z,53.80
2019-03-02T11:45:01.911Z,53.60
2019-03-02T11:47:23.696Z,54.60
2019-03-02T11:49:30.659Z,53.90
2019-03-02T11:51:45.429Z,54.30
2019-03-02T11:53:53.787Z,50.50
2019-03-02T11:56:08.592Z,47.70
2019-03-02T11:58:29.749Z,46.50
2019-03-02T12:00:38.954Z,42.10
2019-03-02T12:02:45.797Z,38.80
2019-03-02T12:05:09.543Z,39.30
2019-03-02T12:07:14.902Z,36.00
2019-03-02T12:09:36.781Z,34.60
2019-03-02T12:11:46.873Z,36.70
2019-03-02T12:13:58.251Z,36.60
2019-03-02T12:16:03.666Z,35.00
2019-03-02T12:18:12.817Z,33.70
2019-03-02T12:20:24.973Z,33.70
2019-03-02T12:22:46.453Z,36.00
2019-03-02T12:25:08.416Z,35.60
2019-03-02T12:27:22.392Z,37.50
2019-03-02T12:29:35.908Z,37.60
2019-03-02T12:31:57.395Z,36.60
2019-03-02T12:34:02.834Z,36.70
2019-03-02T12:36:08.271Z,36.40
2019-03-02T12:38:22.823Z,35.10
2019-03-02T12:40:28.289Z,33.80
2019-03-02T12:42:42.958Z,33.00
2019-03-02T12:44:54.179Z,33.30
2019-03-02T12:47:07.414Z,36.50
2019-03-02T12:49:19.035Z,33.80
2019-03-02T12:51:30.349Z,33.30
2019-03-02T12:53:35.815Z,33.90
2019-03-02T12:55:41.153Z,33.20
2019-03-02T12:57:52.154Z,34.50
2019-03-02T13:00:00.456Z,34.80
2019-03-02T13:02:22.800Z,33.80
2019-03-02T13:04:31.225Z,33.90
2019-03-02T13:06:37.470Z,36.10
2019-03-02T13:08:46.097Z,34.10
2019-03-02T13:10:53.485Z,34.30
2019-03-02T13:12:58.657Z,30.20
2019-03-02T13:15:06.031Z,32.20
2019-03-02T13:17:17.337Z,31.80
2019-03-02T13:19:39.334Z,30.40
2019-03-02T13:21:48.047Z,30.90
2019-03-02T13:24:04.596Z,30.80
2019-03-02T13:26:14.671Z,26.50
2019-03-02T13:28:40.582Z,27.10
2019-03-02T13:31:03.318Z,26.90
2019-03-02T13:33:10.244Z,27.30
2019-03-02T13:35:23.493Z,27.20
2019-03-02T13:37:28.644Z,28.40
2019-03-02T13:39:51.125Z,28.50
2019-03-02T13:41:57.843Z,28.50
2019-03-02T13:44:07.266Z,28.40
2019-03-02T13:46:18.758Z,28.70
2019-03-02T13:48:25.638Z,28.00
2019-03-02T13:50:43.251Z,27.20
2019-03-02T13:52:51.070Z,26.80
2019-03-02T13:54:56.593Z,27.20
2019-03-02T13:57:05.767Z,28.20
2019-03-02T13:59:11.470Z,29.10
2019-03-02T14:01:16.774Z,30.60
2019-03-02T14:03:34.068Z,29.70
2019-03-02T14:05:57.372Z,30.00
2019-03-02T14:08:09.052Z,28.70
2019-03-02T14:10:26.643Z,29.60
2019-03-02T14:12:50.847Z,29.60
2019-03-02T14:15:17.272Z,29.20
2019-03-02T14:17:24.411Z,30.00
2019-03-02T14:21:55.071Z,29.50
2019-03-02T14:24:12.558Z,28.20
2019-03-02T14:26:34.121Z,28.80
2019-03-02T14:28:54.384Z,28.10
2019-03-02T14:31:08.556Z,28.30
2019-03-02T14:33:30.457Z,28.00
2019-03-02T14:35:37.311Z,28.70
2019-03-02T14:37:48.932Z,29.10
2019-03-02T14:40:00.155Z,29.30
2019-03-02T14:42:17.616Z,29.60
2019-03-02T14:44:38.330Z,30.80
2019-03-02T14:46:46.451Z,31.00
2019-03-02T14:48:51.877Z,31.70
2019-03-02T14:51:09.610Z,31.50
2019-03-02T14:53:21.065Z,32.40
2019-03-02T14:55:29.235Z,33.70
2019-03-02T14:57:33.377Z,34.30
2019-03-02T14:59:55.097Z,34.50
2019-03-02T15:02:17.646Z,34.40
2019-03-02T15:04:31.855Z,35.30
2019-03-02T15:06:40.479Z,35.10
2019-03-02T15:09:00.531Z,35.80
2019-03-02T15:11:06.059Z,36.50
2019-03-02T15:13:11.538Z,36.70
2019-03-02T15:15:33.361Z,37.30
2019-03-02T15:17:38.805Z,36.60
2019-03-02T15:20:02.783Z,38.10
2019-03-02T15:22:08.042Z,37.70
2019-03-02T15:24:16.554Z,37.80
2019-03-02T15:26:39.313Z,40.30
2019-03-02T15:28:44.447Z,43.20
2019-03-02T15:30:52.947Z,45.50
2019-03-02T15:33:01.552Z,48.50
2019-03-02T15:35:30.279Z,51.40
2019-03-02T15:37:34.804Z,57.30
2019-03-02T15:39:53.610Z,61.70
2019-03-02T15:42:08.573Z,65.80
2019-03-02T15:44:29.044Z,68.50
2019-03-02T15:46:51.057Z,70.40
2019-03-02T15:49:08.568Z,71.00
2019-03-02T15:51:14.121Z,71.70
2019-03-02T15:53:20.266Z,72.40
2019-03-02T15:55:32.163Z,72.60
2019-03-02T15:57:47.098Z,72.80
2019-03-02T16:00:13.439Z,72.10
2019-03-02T16:02:21.479Z,72.90
2019-03-02T16:04:28.268Z,73.50
2019-03-02T16:06:33.962Z,74.50
2019-03-02T16:08:41.870Z,74.20
2019-03-02T16:10:51.332Z,74.70
2019-03-02T16:13:06.460Z,75.70
2019-03-02T16:15:22.435Z,74.80
2019-03-02T16:17:41.301Z,75.90
2019-03-02T16:19:49.677Z,75.80
2019-03-02T16:21:58.624Z,75.90
2019-03-02T16:24:10.068Z,76.80
2019-03-02T16:26:18.210Z,76.60
2019-03-02T16:28:29.908Z,79.40
2019-03-02T16:30:39.186Z,81.80
2019-03-02T16:32:55.328Z,88.00
2019-03-02T16:35:02.143Z,90.20
2019-03-02T16:37:17.022Z,91.10
2019-03-02T16:39:33.493Z,91.60
2019-03-02T16:41:39.240Z,92.10
2019-03-02T16:43:44.583Z,92.80
2019-03-02T16:45:56.077Z,93.20
2019-03-02T16:48:14.337Z,93.90
2019-03-02T16:50:26.381Z,95.10
2019-03-02T16:52:38.959Z,95.90
2019-03-02T16:54:56.752Z,97.60
2019-03-02T16:57:05.118Z,99.50
2019-03-02T16:59:12.298Z,99.90
2019-03-02T17:01:35.681Z,99.90
2019-03-02T17:03:57.947Z,99.90
2019-03-02T17:06:09.712Z,99.90
2019-03-02T17:08:31.309Z,99.90
2019-03-02T17:10:52.395Z,99.90
2019-03-02T17:12:58.934Z,99.90
2019-03-02T17:15:10.652Z,99.90
2019-03-02T17:17:17.376Z,99.90
2019-03-02T17:19:24.383Z,99.90
2019-03-02T17:21:31.366Z,99.90
2019-03-02T17:23:42.642Z,99.90
2019-03-02T17:25:47.588Z,99.90
2019-03-02T17:27:59.807Z,99.90
2019-03-02T17:30:24.982Z,99.90
2019-03-02T17:32:29.999Z,99.90
2019-03-02T17:34:37.925Z,99.90
2019-03-02T17:36:46.214Z,99.90
2019-03-02T17:38:57.891Z,99.90
2019-03-02T17:41:18.728Z,99.90
2019-03-02T17:43:40.021Z,99.90
2019-03-02T17:45:53.049Z,99.90
2019-03-02T17:48:05.086Z,99.90
2019-03-02T17:50:16.245Z,99.90
2019-03-02T17:52:38.210Z,99.90
2019-03-02T17:54:56.338Z,99.90
2019-03-02T17:57:13.979Z,99.90
2019-03-02T17:59:34.438Z,99.90
2019-03-02T18:01:51.777Z,99.90
2019-03-02T18:03:59.483Z,99.90
2019-03-02T18:06:04.066Z,99.90
2019-03-02T18:08:12.326Z,99.90
2019-03-02T18:10:20.438Z,99.90
2019-03-02T18:12:30.320Z,99.90
2019-03-02T18:14:35.876Z,99.90
2019-03-02T18:16:56.483Z,99.90
2019-03-02T18:19:03.749Z,99.90
2019-03-02T18:21:08.238Z,99.90
2019-03-02T18:23:12.020Z,99.90
2019-03-02T18:25:15.876Z,99.90
2019-03-02T18:27:20.074Z,99.90
2019-03-02T18:29:25.105Z,99.90
2019-03-02T18:31:29.561Z,99.90
2019-03-02T18:33:35.257Z,99.90
2019-03-02T18:35:39.096Z,99.90
2019-03-02T18:37:42.863Z,99.90
2019-03-02T18:39:46.711Z,99.90
2019-03-02T18:41:54.033Z,99.90
2019-03-02T18:43:56.468Z,99.90
2019-03-02T18:46:00.287Z,99.90
2019-03-02T18:48:05.978Z,99.90
2019-03-02T18:50:32.468Z,99.90
2019-03-02T18:52:53.725Z,99.90
2019-03-02T18:54:58.533Z,99.90
2019-03-02T18:57:02.338Z,99.90
2019-03-02T18:59:07.803Z,99.90
2019-03-02T19:01:12.943Z,99.90
2019-03-02T19:03:16.660Z,99.90
2019-03-02T19:05:22.105Z,99.90
2019-03-02T19:07:26.217Z,99.90
2019-03-02T19:09:32.306Z,99.90
2019-03-02T19:11:35.739Z,99.90
2019-03-02T19:13:40.697Z,99.90
2019-03-02T19:15:53.542Z,99.90
2019-03-02T19:17:52.285Z,99.90
2019-03-02T19:19:55.931Z,99.90
2019-03-02T19:21:59.903Z,99.90
2019-03-02T19:24:03.965Z,99.90
2019-03-02T19:26:07.789Z,99.90
2019-03-02T19:28:11.503Z,99.90
2019-03-02T19:30:20.340Z,99.90
2019-03-02T19:32:24.013Z,99.90
2019-03-02T19:34:27.943Z,99.90
2019-03-02T19:36:31.981Z,99.90
2019-03-02T19:38:35.652Z,99.90
2019-03-02T19:40:40.385Z,99.90
2019-03-02T19:42:44.274Z,99.90
2019-03-02T19:44:48.496Z,99.90
2019-03-02T19:46:52.195Z,99.90
2019-03-02T19:48:56.495Z,99.90
2019-03-02T19:51:00.907Z,99.90
2019-03-02T19:53:05.056Z,99.90
2019-03-02T19:55:11.010Z,99.90
2019-03-02T19:57:14.963Z,99.90
2019-03-02T19:59:18.623Z,99.90
2019-03-02T20:01:22.367Z,99.90
2019-03-02T20:03:27.022Z,99.90
2019-03-02T20:05:31.180Z,99.90
2019-03-02T20:07:35.008Z,99.90
2019-03-02T20:09:40.960Z,99.90
2019-03-02T20:11:44.906Z,99.90
2019-03-02T20:13:48.627Z,99.90
2019-03-02T20:15:52.443Z,99.90
2019-03-02T20:17:56.419Z,99.90
2019-03-02T20:20:00.274Z,99.90
2019-03-02T20:22:04.595Z,99.90
2019-03-02T20:24:08.448Z,99.90
2019-03-02T20:26:12.955Z,99.90
2019-03-02T20:28:16.976Z,99.90
2019-03-02T20:30:24.543Z,99.90
2019-03-02T20:32:28.244Z,99.90
2019-03-02T20:34:32.217Z,99.90
2019-03-02T20:36:36.757Z,99.90
2019-03-02T20:38:40.875Z,99.90
2019-03-02T20:40:45.454Z,99.90
2019-03-02T20:42:49.597Z,99.90
2019-03-02T20:44:53.439Z,99.90
2019-03-02T20:46:57.305Z,99.90
2019-03-02T20:49:00.923Z,99.90
2019-03-02T20:51:05.269Z,99.90
2019-03-02T20:53:09.048Z,99.90
2019-03-02T20:55:14.945Z,99.90
2019-03-02T20:57:18.588Z,99.90
2019-03-02T20:59:22.359Z,99.90
2019-03-02T21:01:27.094Z,99.90
2019-03-02T21:03:30.848Z,99.90
2019-03-02T21:05:34.884Z,99.90
2019-03-02T21:07:38.704Z,99.90
2019-03-02T21:09:42.956Z,99.90
2019-03-02T21:11:46.902Z,99.90
2019-03-02T21:13:50.845Z,99.90
2019-03-02T21:15:54.624Z,99.90
2019-03-02T21:17:58.451Z,99.90
2019-03-02T21:20:02.515Z,99.90
2019-03-02T21:22:06.425Z,99.90
2019-03-02T21:24:10.666Z,99.90
2019-03-02T21:26:14.284Z,99.90
2019-03-02T21:28:18.060Z,99.90
2019-03-02T21:30:22.150Z,99.90
2019-03-02T21:32:25.980Z,99.90
2019-03-02T21:34:29.792Z,99.90
2019-03-02T21:36:33.840Z,99.90
2019-03-02T21:38:39.741Z,99.90
2019-03-02T21:40:43.465Z,99.90
2019-03-02T21:42:47.906Z,99.90
2019-03-02T21:44:52.711Z,99.90
2019-03-02T21:46:56.625Z,99.90
2019-03-02T21:49:00.330Z,99.90
2019-03-02T21:51:07.578Z,99.90
2019-03-02T21:53:11.302Z,99.90
2019-03-02T21:55:16.273Z,99.90
2019-03-02T21:57:19.990Z,99.90
2019-03-02T21:59:23.829Z,99.90
2019-03-02T22:01:27.574Z,99.90
2019-03-02T22:03:31.377Z,99.90
2019-03-02T22:05:35.168Z,99.90
2019-03-02T22:07:39.056Z,99.90
2019-03-02T22:09:42.749Z,99.90
2019-03-02T22:11:46.674Z,99.90
2019-03-02T22:13:50.810Z,99.90
2019-03-02T22:15:54.795Z,99.90
2019-03-02T22:17:58.802Z,99.90
2019-03-02T22:20:05.934Z,99.90
2019-03-02T22:22:09.672Z,99.90
2019-03-02T22:24:15.379Z,99.90
2019-03-02T22:26:20.723Z,99.90
2019-03-02T22:28:24.760Z,99.90
2019-03-02T22:30:30.435Z,99.90
2019-03-02T22:32:34.646Z,99.90
2019-03-02T22:34:38.379Z,99.90
2019-03-02T22:36:42.357Z,99.90
2019-03-02T22:38:47.588Z,99.90
2019-03-02T22:40:51.681Z,99.90
2019-03-02T22:42:56.627Z,99.90
2019-03-02T22:45:00.288Z,99.90
2019-03-02T22:47:04.001Z,99.90
2019-03-02T22:49:07.711Z,99.90
2019-03-02T22:51:11.476Z,99.90
2019-03-02T22:53:15.074Z,99.90
2019-03-02T22:55:18.810Z,99.90
2019-03-02T22:57:22.517Z,99.90
2019-03-02T22:59:26.375Z,99.90
2019-03-02T23:01:39.257Z,99.90
2019-03-02T23:03:41.858Z,99.90
2019-03-02T23:05:46.029Z,99.90
2019-03-02T23:07:49.848Z,99.90
2019-03-02T23:09:53.595Z,99.90
2019-03-02T23:11:57.546Z,99.90
2019-03-02T23:14:01.351Z,99.90
2019-03-02T23:16:05.067Z,99.90
2019-03-02T23:18:08.812Z,99.90
2019-03-02T23:20:12.567Z,99.90
2019-03-02T23:22:18.321Z,99.90
2019-03-02T23:24:21.555Z,99.90
2019-03-02T23:26:25.302Z,99.90
2019-03-02T23:28:28.973Z,99.90
2019-03-02T23:30:32.680Z,99.90
2019-03-02T23:32:36.816Z,99.90
2019-03-02T23:34:40.500Z,99.90
2019-03-02T23:36:44.812Z,99.90
2019-03-02T23:38:48.654Z,99.90
2019-03-02T23:40:52.440Z,99.90
2019-03-02T23:42:56.379Z,99.90
2019-03-02T23:45:00.172Z,99.90
2019-03-02T23:47:05.259Z,99.90
2019-03-02T23:49:08.869Z,99.90
2019-03-02T23:51:12.849Z,99.90
2019-03-02T23:53:16.650Z,99.90
2019-03-02T23:55:20.450Z,99.90
2019-03-02T23:57:24.039Z,99.90
2019-03-02T23:59:27.750Z,99.90
